Time;durP1;ratioP1;P1;durP2;ratioP2;P2;SDS_P1;SDS_P2;PMS_P1;PMS_P2;Temp;Humidity;BMP_temperature;BMP_pressure;BME280_temperature;BME280_humidity;BME280_pressure;Samples;Min_cycle;Max_cycle;Signal;HPM_P1;HPM_P2
2022/07/17 00:00:18;;;;;;;10.85;7.30;;;;;;;;;;4859829;29;20053;-72
2022/07/17 00:02:44;;;;;;;8.10;7.30;;;;;;;;;;4876684;29;20425;-72
2022/07/17 00:05:10;;;;;;;12.52;8.00;;;;;;;;;;4876318;29;20049;-72
2022/07/17 00:07:36;;;;;;;13.00;7.63;;;;;;;;;;4859922;29;20041;-72
2022/07/17 00:10:02;;;;;;;9.80;7.80;;;;;;;;;;4876229;29;20041;-72
2022/07/17 00:12:28;;;;;;;12.95;7.68;;;;;;;;;;4876373;29;20143;-72
2022/07/17 00:14:54;;;;;;;9.38;8.43;;;;;;;;;;4859668;29;20044;-72
2022/07/17 00:17:21;;;;;;;9.55;7.55;;;;;;;;;;4844225;29;20056;-73
2022/07/17 00:19:47;;;;;;;8.30;7.13;;;;;;;;;;4859654;29;20071;-73
2022/07/17 00:22:13;;;;;;;8.57;7.60;;;;;;;;;;4875647;29;20545;-73
2022/07/17 00:24:39;;;;;;;9.70;7.93;;;;;;;;;;4876275;29;20051;-73
2022/07/17 00:27:04;;;;;;;9.60;7.55;;;;;;;;;;4876128;29;20052;-72
2022/07/17 00:29:30;;;;;;;12.80;7.72;;;;;;;;;;4877142;29;20472;-73
2022/07/17 00:31:56;;;;;;;9.18;6.88;;;;;;;;;;4862263;29;20045;-73
2022/07/17 00:34:22;;;;;;;9.25;7.00;;;;;;;;;;4884655;29;20053;-73
2022/07/17 00:36:48;;;;;;;10.27;7.57;;;;;;;;;;4869743;29;20131;-74
2022/07/17 00:39:14;;;;;;;12.93;6.85;;;;;;;;;;4877760;29;20056;-73
2022/07/17 00:41:40;;;;;;;7.60;6.80;;;;;;;;;;4876183;29;20049;-72
2022/07/17 00:44:06;;;;;;;9.77;7.30;;;;;;;;;;4875906;29;20422;-72
2022/07/17 00:46:32;;;;;;;7.70;6.90;;;;;;;;;;4876204;29;20048;-72
2022/07/17 00:48:58;;;;;;;7.65;6.88;;;;;;;;;;4860063;29;20076;-73
2022/07/17 00:51:24;;;;;;;14.57;7.78;;;;;;;;;;4867890;29;20053;-73
2022/07/17 00:53:50;;;;;;;9.70;8.48;;;;;;;;;;4890104;29;20148;-73
2022/07/17 00:56:16;;;;;;;14.18;8.10;;;;;;;;;;4874644;29;20045;-72
2022/07/17 00:58:42;;;;;;;13.57;8.13;;;;;;;;;;4859281;29;20060;-73
2022/07/17 01:01:08;;;;;;;17.23;7.93;;;;;;;;;;4859147;29;20049;-73
2022/07/17 01:03:33;;;;;;;9.38;8.40;;;;;;;;;;4859021;29;20052;-73
2022/07/17 01:05:59;;;;;;;8.55;7.00;;;;;;;;;;4859189;29;20063;-74
2022/07/17 01:08:26;;;;;;;16.80;7.32;;;;;;;;;;4875625;29;20061;-72
2022/07/17 01:10:51;;;;;;;9.80;6.80;;;;;;;;;;4875753;29;20110;-73
2022/07/17 01:13:18;;;;;;;9.90;6.78;;;;;;;;;;4875358;29;20487;-72
2022/07/17 01:15:44;;;;;;;10.73;7.35;;;;;;;;;;4859197;29;20049;-73
2022/07/17 01:18:10;;;;;;;14.65;7.53;;;;;;;;;;4875595;29;20060;-72
2022/07/17 01:20:37;;;;;;;10.05;7.75;;;;;;;;;;4875887;29;20419;-72
2022/07/17 01:23:02;;;;;;;11.07;7.35;;;;;;;;;;4875286;29;20041;-72
2022/07/17 01:25:28;;;;;;;9.05;6.50;;;;;;;;;;4875680;29;20067;-72
2022/07/17 01:27:54;;;;;;;7.43;6.72;;;;;;;;;;4875555;29;20071;-72
2022/07/17 01:30:20;;;;;;;10.23;6.60;;;;;;;;;;4875492;29;20487;-73
2022/07/17 01:32:46;;;;;;;9.23;6.50;;;;;;;;;;4876578;29;20053;-73
2022/07/17 01:35:12;;;;;;;11.32;6.75;;;;;;;;;;4879214;29;20045;-73
2022/07/17 01:37:40;;;;;;;20.23;7.03;;;;;;;;;;4862421;29;20041;-73
2022/07/17 01:40:07;;;;;;;19.60;10.48;;;;;;;;;;4878770;29;20072;-73
2022/07/17 01:42:33;;;;;;;8.82;8.13;;;;;;;;;;4862374;29;20062;-74
2022/07/17 01:44:58;;;;;;;14.60;7.97;;;;;;;;;;4878951;29;20510;-72
2022/07/17 01:47:24;;;;;;;12.10;8.15;;;;;;;;;;4862007;29;20048;-72
2022/07/17 01:49:51;;;;;;;11.55;8.50;;;;;;;;;;4862126;29;20057;-72
2022/07/17 01:52:17;;;;;;;8.38;7.57;;;;;;;;;;4878520;29;20080;-72
2022/07/17 01:54:43;;;;;;;11.05;7.38;;;;;;;;;;4877462;29;20442;-73
2022/07/17 01:57:09;;;;;;;13.23;7.28;;;;;;;;;;4878542;29;20071;-72
2022/07/17 01:59:35;;;;;;;7.57;6.75;;;;;;;;;;4878828;29;20085;-72
2022/07/17 02:02:01;;;;;;;8.80;7.40;;;;;;;;;;4861973;29;20037;-73
2022/07/17 02:04:27;;;;;;;8.73;7.43;;;;;;;;;;4861727;29;20127;-74
2022/07/17 02:06:54;;;;;;;10.48;7.35;;;;;;;;;;4878736;29;20131;-71
2022/07/17 02:09:21;;;;;;;11.40;7.18;;;;;;;;;;4878310;29;20048;-73
2022/07/17 02:11:46;;;;;;;10.10;6.95;;;;;;;;;;4878616;29;20405;-72
2022/07/17 02:14:12;;;;;;;11.77;7.25;;;;;;;;;;4878178;29;20060;-73
2022/07/17 02:16:38;;;;;;;11.70;6.82;;;;;;;;;;4861855;29;20053;-73
2022/07/17 02:19:04;;;;;;;7.80;6.97;;;;;;;;;;4877952;29;20049;-73
2022/07/17 02:21:29;;;;;;;14.70;6.85;;;;;;;;;;4878348;29;20422;-73
2022/07/17 02:23:55;;;;;;;7.60;6.65;;;;;;;;;;4861727;29;20056;-72
2022/07/17 02:26:21;;;;;;;10.45;6.90;;;;;;;;;;4861521;29;20045;-73
2022/07/17 02:28:47;;;;;;;10.38;6.40;;;;;;;;;;4877105;29;20140;-73
2022/07/17 02:31:13;;;;;;;6.95;6.35;;;;;;;;;;4878149;29;20029;-73
2022/07/17 02:33:39;;;;;;;8.70;7.85;;;;;;;;;;4878107;29;20061;-73
2022/07/17 02:36:05;;;;;;;10.65;7.00;;;;;;;;;;4845983;29;20037;-75
2022/07/17 02:38:31;;;;;;;8.15;6.50;;;;;;;;;;4861413;29;20455;-72
2022/07/17 02:40:57;;;;;;;9.45;6.95;;;;;;;;;;4878286;29;20044;-73
2022/07/17 02:43:23;;;;;;;11.45;7.13;;;;;;;;;;4860761;29;20149;-73
2022/07/17 02:45:49;;;;;;;7.38;6.68;;;;;;;;;;4878782;29;20045;-73
2022/07/17 02:48:15;;;;;;;10.85;7.35;;;;;;;;;;4881161;29;20044;-74
2022/07/17 02:50:41;;;;;;;15.00;8.10;;;;;;;;;;4861398;29;20501;-72
2022/07/17 02:53:07;;;;;;;7.25;6.50;;;;;;;;;;4877708;29;20052;-73
2022/07/17 02:55:33;;;;;;;7.70;7.00;;;;;;;;;;4877958;29;20480;-73
2022/07/17 02:57:59;;;;;;;8.93;7.28;;;;;;;;;;4861140;29;20481;-73
2022/07/17 03:00:26;;;;;;;7.43;6.40;;;;;;;;;;4877320;29;20075;-73
2022/07/17 03:02:52;;;;;;;7.65;6.85;;;;;;;;;;4877719;29;20056;-73
2022/07/17 03:05:18;;;;;;;8.85;6.45;;;;;;;;;;4876216;29;20395;-73
2022/07/17 03:07:44;;;;;;;7.70;6.53;;;;;;;;;;4877692;29;20056;-73
2022/07/17 03:10:10;;;;;;;11.05;6.57;;;;;;;;;;4860594;29;20049;-72
2022/07/17 03:12:36;;;;;;;7.93;6.70;;;;;;;;;;4877591;29;20132;-73
2022/07/17 03:15:02;;;;;;;9.85;6.88;;;;;;;;;;4877463;29;20037;-73
2022/07/17 03:17:28;;;;;;;9.68;7.03;;;;;;;;;;4877468;29;20537;-73
2022/07/17 03:19:54;;;;;;;16.58;7.20;;;;;;;;;;4877545;29;20064;-72
2022/07/17 03:22:20;;;;;;;9.10;7.03;;;;;;;;;;4877210;29;20052;-72
2022/07/17 03:24:46;;;;;;;8.05;7.20;;;;;;;;;;4860748;29;20073;-72
2022/07/17 03:27:12;;;;;;;10.23;6.93;;;;;;;;;;4877228;29;20049;-74
2022/07/17 03:29:38;;;;;;;19.80;7.13;;;;;;;;;;4860752;29;20394;-73
2022/07/17 03:32:04;;;;;;;8.07;6.80;;;;;;;;;;4860569;29;20117;-73
2022/07/17 03:34:30;;;;;;;12.82;7.05;;;;;;;;;;4877018;29;20117;-75
2022/07/17 03:36:56;;;;;;;10.32;7.43;;;;;;;;;;4878155;29;20128;-73
2022/07/17 03:39:22;;;;;;;7.85;6.80;;;;;;;;;;4883518;29;20041;-74
2022/07/17 03:41:48;;;;;;;9.68;7.35;;;;;;;;;;4885069;29;20048;-74
2022/07/17 03:44:13;;;;;;;10.85;7.53;;;;;;;;;;4887390;29;20045;-73
2022/07/17 03:46:39;;;;;;;14.23;7.47;;;;;;;;;;4863883;29;20048;-73
2022/07/17 03:49:05;;;;;;;10.23;6.82;;;;;;;;;;4877204;29;20127;-72
2022/07/17 03:51:31;;;;;;;10.23;7.60;;;;;;;;;;4860020;29;20488;-72
2022/07/17 03:53:57;;;;;;;12.30;7.25;;;;;;;;;;4876591;29;20063;-73
2022/07/17 03:56:23;;;;;;;13.23;7.28;;;;;;;;;;4875734;29;20036;-72
2022/07/17 03:58:49;;;;;;;8.60;7.20;;;;;;;;;;4876694;29;20152;-72
2022/07/17 04:01:15;;;;;;;10.23;7.13;;;;;;;;;;4876379;29;20533;-72
2022/07/17 04:03:40;;;;;;;11.43;7.82;;;;;;;;;;4876500;29;20522;-72
2022/07/17 04:06:06;;;;;;;9.57;7.55;;;;;;;;;;4876886;29;20044;-73
2022/07/17 04:08:32;;;;;;;9.15;7.18;;;;;;;;;;4859866;29;20540;-74
2022/07/17 04:10:58;;;;;;;20.10;7.28;;;;;;;;;;4876627;29;20450;-73
2022/07/17 04:13:24;;;;;;;11.95;6.75;;;;;;;;;;4876153;29;20076;-73
2022/07/17 04:15:50;;;;;;;11.18;6.82;;;;;;;;;;4876720;29;20135;-73
2022/07/17 04:18:16;;;;;;;25.58;6.80;;;;;;;;;;4876085;29;20076;-73
2022/07/17 04:20:42;;;;;;;11.05;7.38;;;;;;;;;;4876520;29;20067;-73
2022/07/17 04:23:08;;;;;;;11.70;7.10;;;;;;;;;;4876359;29;20041;-74
2022/07/17 04:25:33;;;;;;;7.80;7.10;;;;;;;;;;4872835;29;20045;-73
2022/07/17 04:27:59;;;;;;;16.20;7.25;;;;;;;;;;4876271;29;20077;-73
2022/07/17 04:30:25;;;;;;;9.55;6.97;;;;;;;;;;4875986;29;20156;-73
2022/07/17 04:32:51;;;;;;;9.55;6.38;;;;;;;;;;4861206;29;20045;-72
2022/07/17 04:35:17;;;;;;;10.88;6.68;;;;;;;;;;4876702;29;20048;-73
2022/07/17 04:37:43;;;;;;;9.98;6.30;;;;;;;;;;4864970;29;20402;-72
2022/07/17 04:40:10;;;;;;;10.02;6.40;;;;;;;;;;4883051;29;20091;-72
2022/07/17 04:42:35;;;;;;;9.73;6.25;;;;;;;;;;4877872;29;20119;-73
2022/07/17 04:45:01;;;;;;;15.02;6.88;;;;;;;;;;4878226;29;20055;-73
2022/07/17 04:47:28;;;;;;;6.00;5.47;;;;;;;;;;4877978;29;20049;-71
2022/07/17 04:49:54;;;;;;;7.45;5.78;;;;;;;;;;4861000;29;20045;-74
2022/07/17 04:52:20;;;;;;;6.50;5.90;;;;;;;;;;4877089;29;20056;-73
2022/07/17 04:54:46;;;;;;;8.05;5.40;;;;;;;;;;4877529;29;20064;-74
2022/07/17 04:57:12;;;;;;;12.18;6.35;;;;;;;;;;4877513;29;20045;-74
2022/07/17 04:59:37;;;;;;;11.90;5.90;;;;;;;;;;4877177;29;20059;-74
2022/07/17 05:02:03;;;;;;;8.13;5.50;;;;;;;;;;4877157;29;20406;-74
2022/07/17 05:04:29;;;;;;;7.90;6.00;;;;;;;;;;4876886;29;20057;-73
2022/07/17 05:06:55;;;;;;;6.50;5.47;;;;;;;;;;4878091;29;20144;-73
2022/07/17 05:09:21;;;;;;;6.22;5.13;;;;;;;;;;4880146;29;20063;-73
2022/07/17 05:11:47;;;;;;;5.80;4.70;;;;;;;;;;4880050;29;20033;-74
2022/07/17 05:14:13;;;;;;;7.10;4.72;;;;;;;;;;4880653;29;20053;-75
2022/07/17 05:16:39;;;;;;;5.75;4.97;;;;;;;;;;4881240;29;20048;-73
2022/07/17 05:19:05;;;;;;;4.28;3.80;;;;;;;;;;4880269;29;20471;-74
2022/07/17 05:21:30;;;;;;;8.18;4.10;;;;;;;;;;4880372;29;20045;-73
2022/07/17 05:23:57;;;;;;;5.10;3.85;;;;;;;;;;4881880;29;20071;-72
2022/07/17 05:26:23;;;;;;;6.57;4.60;;;;;;;;;;4880044;29;20155;-72
2022/07/17 05:28:49;;;;;;;4.82;4.38;;;;;;;;;;4864480;29;20522;-73
2022/07/17 05:31:15;;;;;;;7.25;4.38;;;;;;;;;;4882234;29;20044;-75
2022/07/17 05:33:41;;;;;;;5.75;4.22;;;;;;;;;;4882188;29;20052;-71
2022/07/17 05:36:07;;;;;;;4.75;3.88;;;;;;;;;;4882502;29;20493;-73
2022/07/17 05:38:33;;;;;;;7.72;4.25;;;;;;;;;;4865089;29;20097;-75
2022/07/17 05:40:59;;;;;;;6.75;3.75;;;;;;;;;;4865410;29;20498;-73
2022/07/17 05:43:25;;;;;;;9.60;3.97;;;;;;;;;;4880818;29;20052;-70
2022/07/17 05:45:54;;;;;;;5.47;3.67;;;;;;;;;;4881201;29;20045;-75
2022/07/17 05:48:20;;;;;;;6.15;3.55;;;;;;;;;;4881116;29;20054;-74
2022/07/17 05:50:46;;;;;;;3.63;3.30;;;;;;;;;;4881112;29;20127;-75
2022/07/17 05:53:12;;;;;;;4.28;3.78;;;;;;;;;;4864585;29;20140;-74
2022/07/17 05:55:38;;;;;;;4.38;3.05;;;;;;;;;;4864306;29;20402;-74
2022/07/17 05:58:04;;;;;;;5.28;3.00;;;;;;;;;;4879919;29;20072;-75
2022/07/17 06:00:30;;;;;;;3.83;2.70;;;;;;;;;;4864260;29;20049;-73
2022/07/17 06:02:56;;;;;;;2.90;2.70;;;;;;;;;;4880704;29;20132;-73
2022/07/17 06:05:22;;;;;;;4.05;2.65;;;;;;;;;;4880321;29;20044;-74
2022/07/17 06:07:48;;;;;;;2.60;2.40;;;;;;;;;;4880346;29;20049;-74
2022/07/17 06:10:14;;;;;;;3.53;2.80;;;;;;;;;;4880668;29;20061;-73
2022/07/17 06:12:40;;;;;;;2.85;2.42;;;;;;;;;;4881266;29;20044;-75
2022/07/17 06:15:06;;;;;;;3.40;2.83;;;;;;;;;;4863927;29;20052;-74
2022/07/17 06:17:32;;;;;;;4.90;3.13;;;;;;;;;;4862849;29;20532;-75
2022/07/17 06:19:57;;;;;;;3.38;3.17;;;;;;;;;;4879354;29;20128;-74
2022/07/17 06:22:23;;;;;;;4.03;2.65;;;;;;;;;;4879717;29;20128;-73
2022/07/17 06:24:49;;;;;;;5.53;2.50;;;;;;;;;;4863885;29;20052;-75
2022/07/17 06:27:15;;;;;;;2.42;2.22;;;;;;;;;;4879746;29;20514;-73
2022/07/17 06:29:41;;;;;;;2.50;2.30;;;;;;;;;;4891730;29;20029;-74
2022/07/17 06:32:07;;;;;;;2.60;2.40;;;;;;;;;;4887321;29;20574;-74
2022/07/17 06:34:33;;;;;;;2.53;2.33;;;;;;;;;;4880524;29;20060;-74
2022/07/17 06:36:59;;;;;;;3.63;2.42;;;;;;;;;;4863787;29;20073;-74
2022/07/17 06:39:25;;;;;;;4.03;2.45;;;;;;;;;;4863278;29;20128;-73
2022/07/17 06:41:51;;;;;;;5.88;2.22;;;;;;;;;;4882723;29;20210;-74
2022/07/17 06:44:17;;;;;;;3.85;2.45;;;;;;;;;;4883438;29;20040;-73
2022/07/17 06:46:43;;;;;;;4.05;2.42;;;;;;;;;;4887133;29;20059;-73
2022/07/17 06:49:09;;;;;;;3.95;2.30;;;;;;;;;;4887222;29;20049;-75
2022/07/17 06:51:36;;;;;;;3.35;2.20;;;;;;;;;;4881045;29;20065;-73
2022/07/17 06:54:01;;;;;;;3.85;2.35;;;;;;;;;;4863070;29;20597;-74
2022/07/17 06:56:28;;;;;;;2.70;2.50;;;;;;;;;;4879834;29;20045;-74
2022/07/17 06:58:54;;;;;;;7.60;2.38;;;;;;;;;;4880971;29;20123;-73
2022/07/17 07:01:20;;;;;;;3.40;2.35;;;;;;;;;;4880498;29;20037;-74
2022/07/17 07:03:46;;;;;;;2.88;2.67;;;;;;;;;;4880004;29;20056;-74
2022/07/17 07:06:12;;;;;;;3.67;3.38;;;;;;;;;;4863136;29;20191;-74
2022/07/17 07:08:38;;;;;;;3.78;2.53;;;;;;;;;;4863299;29;20139;-74
2022/07/17 07:11:04;;;;;;;5.53;2.58;;;;;;;;;;4864307;29;20037;-74
2022/07/17 07:13:30;;;;;;;3.10;2.45;;;;;;;;;;4877962;29;20069;-74
2022/07/17 07:15:56;;;;;;;4.15;2.33;;;;;;;;;;4863086;29;20105;-74
2022/07/17 07:18:22;;;;;;;4.82;2.55;;;;;;;;;;4879941;29;20052;-75
2022/07/17 07:20:48;;;;;;;2.80;2.50;;;;;;;;;;4879801;29;20067;-74
2022/07/17 07:23:14;;;;;;;2.78;2.47;;;;;;;;;;4879691;29;20052;-75
2022/07/17 07:25:40;;;;;;;2.83;2.30;;;;;;;;;;4862522;29;20045;-75
2022/07/17 07:28:06;;;;;;;3.38;2.40;;;;;;;;;;4862532;29;20101;-74
2022/07/17 07:30:32;;;;;;;2.60;2.40;;;;;;;;;;4878076;29;20072;-74
2022/07/17 07:32:58;;;;;;;3.25;2.30;;;;;;;;;;4878608;29;20053;-72
2022/07/17 07:35:24;;;;;;;2.67;2.13;;;;;;;;;;4862211;29;20048;-75
2022/07/17 07:37:50;;;;;;;5.00;2.17;;;;;;;;;;4861923;29;20569;-74
2022/07/17 07:40:16;;;;;;;5.03;1.90;;;;;;;;;;4878458;29;20049;-75
2022/07/17 07:42:41;;;;;;;6.32;1.92;;;;;;;;;;4878422;29;20466;-75
2022/07/17 07:45:08;;;;;;;3.25;2.10;;;;;;;;;;4878450;29;20538;-75
2022/07/17 07:47:41;;;;;;;2.33;2.20;;;;;;;;;;4877999;29;20116;-76
2022/07/17 07:50:07;;;;;;;1.92;1.75;;;;;;;;;;4861230;29;20056;-74
2022/07/17 07:52:33;;;;;;;1.70;1.60;;;;;;;;;;4877600;29;20057;-75
2022/07/17 07:54:59;;;;;;;2.97;1.60;;;;;;;;;;4861786;29;20101;-76
2022/07/17 07:57:25;;;;;;;2.95;2.17;;;;;;;;;;4878254;29;20105;-75
2022/07/17 07:59:51;;;;;;;2.45;1.90;;;;;;;;;;4878522;29;20045;-75
2022/07/17 08:02:17;;;;;;;2.78;1.58;;;;;;;;;;4878213;29;20067;-76
2022/07/17 08:04:44;;;;;;;2.97;2.10;;;;;;;;;;4861592;29;20093;-74
2022/07/17 08:07:09;;;;;;;2.65;1.70;;;;;;;;;;4878556;29;20060;-75
2022/07/17 08:09:36;;;;;;;2.45;1.60;;;;;;;;;;4861341;29;20450;-75
2022/07/17 08:12:02;;;;;;;3.60;2.00;;;;;;;;;;4878741;29;20049;-75
2022/07/17 08:14:28;;;;;;;2.67;1.52;;;;;;;;;;4845775;29;20049;-76
2022/07/17 08:16:53;;;;;;;3.22;1.80;;;;;;;;;;4878819;29;20052;-75
2022/07/17 08:19:19;;;;;;;2.95;1.85;;;;;;;;;;4877771;29;20182;-77
2022/07/17 08:21:45;;;;;;;2.00;1.83;;;;;;;;;;4864011;29;20060;-75
2022/07/17 08:24:11;;;;;;;1.70;1.60;;;;;;;;;;4893807;29;20128;-76
2022/07/17 08:26:37;;;;;;;2.05;1.83;;;;;;;;;;4876919;29;20049;-75
2022/07/17 08:29:03;;;;;;;2.40;2.00;;;;;;;;;;4877800;29;20088;-76
2022/07/17 08:31:29;;;;;;;6.05;1.77;;;;;;;;;;4876612;29;20096;-75
2022/07/17 08:33:55;;;;;;;4.63;1.90;;;;;;;;;;4877188;29;20534;-75
2022/07/17 08:36:21;;;;;;;5.72;1.60;;;;;;;;;;4860343;29;20041;-74
2022/07/17 08:38:47;;;;;;;1.60;1.50;;;;;;;;;;4860006;29;20041;-75
2022/07/17 08:41:16;;;;;;;1.67;1.58;;;;;;;;;;4876361;29;20052;-75
2022/07/17 08:43:42;;;;;;;2.72;2.05;;;;;;;;;;4876517;29;20057;-75
2022/07/17 08:46:11;;;;;;;3.67;1.63;;;;;;;;;;4876447;29;20414;-75
2022/07/17 08:48:39;;;;;;;1.92;1.70;;;;;;;;;;4876416;29;20057;-74
2022/07/17 08:51:05;;;;;;;2.00;1.90;;;;;;;;;;4844116;29;20099;-75
2022/07/17 08:53:30;;;;;;;2.47;1.73;;;;;;;;;;4876297;29;20053;-75
2022/07/17 08:55:56;;;;;;;1.58;1.48;;;;;;;;;;4876528;29;20060;-75
2022/07/17 08:58:22;;;;;;;5.68;1.45;;;;;;;;;;4859535;29;20052;-75
2022/07/17 09:00:49;;;;;;;1.48;1.38;;;;;;;;;;4875873;29;20452;-75
2022/07/17 09:03:16;;;;;;;2.97;1.40;;;;;;;;;;4876527;29;20081;-76
2022/07/17 09:05:42;;;;;;;1.95;1.33;;;;;;;;;;4876043;29;20045;-74
2022/07/17 09:08:09;;;;;;;3.20;1.55;;;;;;;;;;4859445;29;20056;-76
2022/07/17 09:10:37;;;;;;;1.40;1.30;;;;;;;;;;4874534;29;20045;-74
2022/07/17 09:13:23;;;;;;;2.70;2.00;;;;;;;;;;4875963;29;20073;-74
2022/07/17 09:15:49;;;;;;;4.13;2.65;;;;;;;;;;4875719;29;20289;-74
2022/07/17 09:18:17;;;;;;;3.53;3.22;;;;;;;;;;4874697;29;20065;-75
2022/07/17 09:20:44;;;;;;;3.45;2.80;;;;;;;;;;4858687;29;20044;-76
2022/07/17 09:23:10;;;;;;;2.80;2.30;;;;;;;;;;4874536;29;20049;-74
2022/07/17 09:25:37;;;;;;;4.05;1.95;;;;;;;;;;4875561;29;20537;-74
2022/07/17 09:28:03;;;;;;;1.70;1.60;;;;;;;;;;4875745;29;20060;-75
2022/07/17 09:30:29;;;;;;;1.55;1.45;;;;;;;;;;4875299;29;20510;-74
2022/07/17 09:32:55;;;;;;;2.30;1.70;;;;;;;;;;4876557;29;20049;-74
2022/07/17 09:35:21;;;;;;;2.90;1.70;;;;;;;;;;4875265;29;20048;-75
2022/07/17 09:37:47;;;;;;;2.08;1.55;;;;;;;;;;4875908;29;20056;-75
2022/07/17 09:42:58;;;;;;;5.53;1.80;;;;;;;;;;4876451;29;20071;-75
2022/07/17 09:45:24;;;;;;;1.77;1.67;;;;;;;;;;4860239;29;20503;-75
2022/07/17 09:47:50;;;;;;;2.08;1.70;;;;;;;;;;4882443;29;20052;-75
2022/07/17 09:50:16;;;;;;;1.70;1.60;;;;;;;;;;4885955;29;20048;-73
2022/07/17 09:52:42;;;;;;;2.08;1.33;;;;;;;;;;4878649;29;20069;-74
2022/07/17 09:55:08;;;;;;;2.45;1.70;;;;;;;;;;4879183;29;20482;-73
2022/07/17 09:57:34;;;;;;;4.07;2.35;;;;;;;;;;4862368;29;20522;-75
2022/07/17 10:00:01;;;;;;;2.05;1.80;;;;;;;;;;4877855;29;20057;-73
2022/07/17 10:02:41;;;;;;;3.85;1.88;;;;;;;;;;4878233;29;20041;-75
2022/07/17 10:05:11;;;;;;;1.60;1.50;;;;;;;;;;4879607;29;20140;-74
2022/07/17 10:07:37;;;;;;;;;;;;;;;;;;4878347;29;20548;-75
2022/07/17 10:10:03;;;;;;;1.88;1.60;;;;;;;;;;4878760;29;19915;-74
2022/07/17 10:12:29;;;;;;;6.32;2.00;;;;;;;;;;4881203;29;20064;-73
2022/07/17 10:14:55;;;;;;;1.80;1.70;;;;;;;;;;4889163;29;20053;-75
2022/07/17 10:17:21;;;;;;;6.57;1.63;;;;;;;;;;4885340;29;20037;-76
2022/07/17 10:19:52;;;;;;;1.88;1.70;;;;;;;;;;4877404;29;20049;-75
2022/07/17 10:22:18;;;;;;;11.02;1.95;;;;;;;;;;4861743;29;20468;-77
2022/07/17 10:24:45;;;;;;;1.58;1.48;;;;;;;;;;4878270;29;20056;-74
2022/07/17 10:27:17;;;;;;;2.67;1.88;;;;;;;;;;4861469;29;20073;-74
2022/07/17 10:29:43;;;;;;;2.13;1.77;;;;;;;;;;4878204;29;20048;-74
2022/07/17 10:32:14;;;;;;;1.92;1.83;;;;;;;;;;4878591;29;20045;-73
2022/07/17 10:34:41;;;;;;;1.90;1.80;;;;;;;;;;4876777;29;20060;-75
2022/07/17 10:37:20;;;;;;;3.05;1.70;;;;;;;;;;4878499;29;20041;-76
2022/07/17 10:39:56;;;;;;;1.95;1.85;;;;;;;;;;4878138;29;20052;-75
2022/07/17 10:42:38;;;;;;;2.28;1.90;;;;;;;;;;4878334;29;20045;-77
2022/07/17 10:45:08;;;;;;;2.30;2.10;;;;;;;;;;4878174;29;20055;-75
2022/07/17 10:47:50;;;;;;;3.20;1.63;;;;;;;;;;4877862;29;20159;-75
2022/07/17 10:50:17;;;;;;;1.83;1.73;;;;;;;;;;4878060;29;20443;-74
2022/07/17 10:52:43;;;;;;;6.28;1.60;;;;;;;;;;4877604;29;20064;-75
2022/07/17 10:55:21;;;;;;;1.60;1.50;;;;;;;;;;4861329;29;20056;-75
2022/07/17 10:57:48;;;;;;;3.10;1.50;;;;;;;;;;4877989;29;20045;-76
2022/07/17 11:00:17;;;;;;;1.40;1.40;;;;;;;;;;4861063;29;20048;-75
2022/07/17 11:02:43;;;;;;;1.47;1.30;;;;;;;;;;4861018;29;20118;-74
2022/07/17 11:05:13;;;;;;;4.03;1.58;;;;;;;;;;4877189;29;20284;-74
2022/07/17 11:07:49;;;;;;;1.23;1.23;;;;;;;;;;4877513;29;20037;-76
2022/07/17 11:10:15;;;;;;;1.38;1.23;;;;;;;;;;4877980;29;20127;-75
2022/07/17 11:12:41;;;;;;;2.78;1.50;;;;;;;;;;4876290;29;20045;-75
2022/07/17 11:15:07;;;;;;;1.80;1.42;;;;;;;;;;4877616;29;20052;-74
2022/07/17 11:17:33;;;;;;;1.60;1.50;;;;;;;;;;4845845;29;20057;-75
2022/07/17 11:20:00;;;;;;;2.53;2.28;;;;;;;;;;4877433;29;20052;-75
2022/07/17 11:22:29;;;;;;;2.40;2.20;;;;;;;;;;4877410;29;20057;-73
2022/07/17 11:24:55;;;;;;;4.15;2.97;;;;;;;;;;4877377;29;20045;-74
2022/07/17 11:27:22;;;;;;;4.85;2.33;;;;;;;;;;4877500;29;20132;-75
2022/07/17 11:29:47;;;;;;;4.15;2.22;;;;;;;;;;4877324;29;20048;-73
2022/07/17 11:32:13;;;;;;;4.68;1.80;;;;;;;;;;4876453;29;20041;-75
2022/07/17 11:34:39;;;;;;;3.08;2.10;;;;;;;;;;4877190;29;20105;-74
2022/07/17 11:37:06;;;;;;;2.20;2.00;;;;;;;;;;4860522;29;20045;-75
2022/07/17 11:39:47;;;;;;;5.75;2.28;;;;;;;;;;4877839;29;20052;-74
2022/07/17 11:42:13;;;;;;;5.03;1.65;;;;;;;;;;4877295;29;20055;-75
2022/07/17 11:44:39;;;;;;;8.40;2.58;;;;;;;;;;4875860;29;20510;-73
2022/07/17 11:47:05;;;;;;;5.25;2.50;;;;;;;;;;4877226;29;20051;-75
2022/07/17 11:49:32;;;;;;;6.63;2.40;;;;;;;;;;4877176;29;20037;-74
2022/07/17 11:51:59;;;;;;;9.35;4.10;;;;;;;;;;4876789;29;20061;-75
2022/07/17 11:54:25;;;;;;;5.40;2.00;;;;;;;;;;4877011;29;20063;-74
2022/07/17 11:56:55;;;;;;;3.00;2.17;;;;;;;;;;4876795;29;20049;-75
2022/07/17 11:59:25;;;;;;;4.28;2.40;;;;;;;;;;4877093;29;20510;-74
2022/07/17 12:01:51;;;;;;;3.55;2.17;;;;;;;;;;4877036;29;20076;-74
2022/07/17 12:04:17;;;;;;;2.28;1.98;;;;;;;;;;4876400;29;20704;-74
2022/07/17 12:06:43;;;;;;;5.60;2.08;;;;;;;;;;4893827;29;20040;-75
2022/07/17 12:09:09;;;;;;;3.30;2.08;;;;;;;;;;4863930;29;20522;-74
2022/07/17 12:11:47;;;;;;;3.47;1.80;;;;;;;;;;4876769;29;20145;-75
2022/07/17 12:14:13;;;;;;;7.15;2.15;;;;;;;;;;4875661;29;20056;-74
2022/07/17 12:16:39;;;;;;;1.80;1.70;;;;;;;;;;4874517;29;20096;-76
2022/07/17 12:19:09;;;;;;;3.08;2.13;;;;;;;;;;4876683;29;20426;-74
2022/07/17 12:21:36;;;;;;;;;;;;;;;;;;4877037;29;20037;-74
2022/07/17 12:24:05;;;;;;;7.05;1.92;;;;;;;;;;4876509;29;20487;-74
2022/07/17 12:26:31;;;;;;;6.03;2.13;;;;;;;;;;4859583;29;20052;-75
2022/07/17 12:28:57;;;;;;;5.07;2.03;;;;;;;;;;4876611;29;20533;-75
2022/07/17 12:31:23;;;;;;;2.67;2.35;;;;;;;;;;4876596;29;20468;-75
2022/07/17 12:33:50;;;;;;;3.80;1.98;;;;;;;;;;4876298;29;20060;-75
2022/07/17 12:36:16;;;;;;;8.35;5.50;;;;;;;;;;4859919;29;20048;-75
2022/07/17 12:38:42;;;;;;;12.15;9.00;;;;;;;;;;4877021;29;20147;-75
2022/07/17 12:41:08;;;;;;;3.13;2.45;;;;;;;;;;4859790;29;20057;-74
2022/07/17 12:43:34;;;;;;;3.20;1.80;;;;;;;;;;4860026;29;20071;-75
2022/07/17 12:45:59;;;;;;;1.88;1.75;;;;;;;;;;4876658;29;20055;-76
2022/07/17 12:48:25;;;;;;;4.88;2.85;;;;;;;;;;4866857;29;20044;-75
2022/07/17 12:50:51;;;;;;;6.40;5.70;;;;;;;;;;4886224;29;20089;-74
2022/07/17 12:53:18;;;;;;;5.65;2.83;;;;;;;;;;4880886;29;20064;-74
2022/07/17 12:55:44;;;;;;;5.43;3.22;;;;;;;;;;4876096;29;20049;-75
2022/07/17 12:58:10;;;;;;;2.55;1.70;;;;;;;;;;4876166;29;20041;-74
2022/07/17 13:00:35;;;;;;;3.67;2.20;;;;;;;;;;4875892;29;20049;-74
2022/07/17 13:03:02;;;;;;;2.78;1.90;;;;;;;;;;4875057;29;20045;-75
2022/07/17 13:05:28;;;;;;;2.05;1.85;;;;;;;;;;4859679;29;20053;-73
2022/07/17 13:07:54;;;;;;;2.00;1.75;;;;;;;;;;4876285;29;20458;-75
2022/07/17 13:10:20;;;;;;;7.50;3.55;;;;;;;;;;4874873;29;20105;-75
2022/07/17 13:12:46;;;;;;;2.88;2.63;;;;;;;;;;4875725;29;20052;-77
2022/07/17 13:15:12;;;;;;;3.30;2.95;;;;;;;;;;4859362;29;20056;-75
2022/07/17 13:17:38;;;;;;;3.00;1.83;;;;;;;;;;4875165;29;20037;-73
2022/07/17 13:20:04;;;;;;;1.80;1.70;;;;;;;;;;4875943;29;20419;-75
2022/07/17 13:22:31;;;;;;;8.35;2.35;;;;;;;;;;4875742;29;20056;-73
2022/07/17 13:24:57;;;;;;;4.60;1.95;;;;;;;;;;4875799;29;20077;-75
2022/07/17 13:27:22;;;;;;;2.45;2.20;;;;;;;;;;4875722;29;20491;-75
2022/07/17 13:29:48;;;;;;;3.15;2.30;;;;;;;;;;4878463;29;20511;-74
2022/07/17 13:32:14;;;;;;;7.18;2.40;;;;;;;;;;4879682;29;20048;-75
2022/07/17 13:34:40;;;;;;;3.80;2.53;;;;;;;;;;4879407;29;20495;-75
2022/07/17 13:37:08;;;;;;;2.45;2.35;;;;;;;;;;4879520;29;20037;-72
2022/07/17 13:39:35;;;;;;;7.68;2.95;;;;;;;;;;4880525;29;20039;-75
2022/07/17 13:42:01;;;;;;;4.68;2.40;;;;;;;;;;4879511;29;20044;-75
2022/07/17 13:45:02;;;;;;;3.40;2.20;;;;;;;;;;4863190;29;20118;-75
2022/07/17 13:47:29;;;;;;;2.20;1.88;;;;;;;;;;4847553;29;20049;-74
2022/07/17 13:49:56;;;;;;;2.55;2.13;;;;;;;;;;4879447;29;20466;-75
2022/07/17 13:52:22;;;;;;;2.00;1.90;;;;;;;;;;4879508;29;20056;-73
2022/07/17 13:54:48;;;;;;;3.85;1.90;;;;;;;;;;4880018;29;20053;-75
2022/07/17 13:57:13;;;;;;;2.42;2.22;;;;;;;;;;4890399;29;20081;-75
2022/07/17 13:59:39;;;;;;;2.95;2.20;;;;;;;;;;4887800;29;20550;-74
2022/07/17 14:02:09;;;;;;;3.75;2.30;;;;;;;;;;4878930;29;20577;-74
2022/07/17 14:04:35;;;;;;;6.53;2.20;;;;;;;;;;4879138;29;20509;-75
2022/07/17 14:07:00;;;;;;;2.40;2.20;;;;;;;;;;4879055;29;20124;-74
2022/07/17 14:09:26;;;;;;;4.43;2.65;;;;;;;;;;4879054;29;20093;-74
2022/07/17 14:11:52;;;;;;;2.50;2.30;;;;;;;;;;4861708;29;20041;-75
2022/07/17 14:14:18;;;;;;;4.50;2.33;;;;;;;;;;4861986;29;20526;-74
2022/07/17 14:16:44;;;;;;;2.58;2.38;;;;;;;;;;4879002;29;20041;-74
2022/07/17 14:19:10;;;;;;;5.13;1.75;;;;;;;;;;4879104;29;20093;-75
2022/07/17 14:21:36;;;;;;;3.13;2.20;;;;;;;;;;4861901;29;20045;-75
2022/07/17 14:24:03;;;;;;;5.55;2.30;;;;;;;;;;4877386;29;20056;-75
2022/07/17 14:26:29;;;;;;;4.40;2.50;;;;;;;;;;4878707;29;20182;-74
2022/07/17 14:28:55;;;;;;;9.07;2.00;;;;;;;;;;4861960;29;20136;-75
2022/07/17 14:31:21;;;;;;;3.22;2.30;;;;;;;;;;4877205;29;20037;-76
2022/07/17 14:33:47;;;;;;;5.05;1.88;;;;;;;;;;4877890;29;20152;-74
2022/07/17 14:36:13;;;;;;;3.28;2.20;;;;;;;;;;4878224;29;20043;-75
2022/07/17 14:38:39;;;;;;;1.98;1.88;;;;;;;;;;4878309;29;20052;-75